createdAt,value
2023-03-08T00:01:13.198Z,56.40
2023-03-08T00:06:16.969Z,56.50
2023-03-08T00:11:21.129Z,56.46
2023-03-08T00:16:24.376Z,56.38
2023-03-08T00:21:27.100Z,56.28
2023-03-08T00:26:31.171Z,56.31
2023-03-08T00:31:34.156Z,56.31
2023-03-08T00:36:39.408Z,56.43
2023-03-08T00:41:44.088Z,56.27
2023-03-08T00:46:46.833Z,56.38
2023-03-08T00:51:49.978Z,56.30
2023-03-08T00:56:54.047Z,56.36
2023-03-08T01:01:56.899Z,56.40
2023-03-08T01:07:00.995Z,56.48
2023-03-08T01:12:05.775Z,56.44
2023-03-08T01:17:08.645Z,56.51
2023-03-08T01:22:11.958Z,56.61
2023-03-08T01:27:16.129Z,56.61
2023-03-08T01:32:19.353Z,56.64
2023-03-08T01:37:22.191Z,56.54
2023-03-08T01:42:26.741Z,56.54
2023-03-08T01:47:31.492Z,56.51
2023-03-08T01:52:56.659Z,56.58
2023-03-08T01:58:00.821Z,56.63
2023-03-08T02:03:09.242Z,56.65
2023-03-08T02:08:12.582Z,56.70
2023-03-08T02:13:17.842Z,56.56
2023-03-08T02:18:20.731Z,56.68
2023-03-08T02:23:28.477Z,56.67
2023-03-08T02:28:33.252Z,56.63
2023-03-08T02:33:35.988Z,56.74
2023-03-08T02:38:40.227Z,56.81
2023-03-08T02:43:42.984Z,56.84
2023-03-08T02:48:46.076Z,56.94
2023-03-08T02:53:50.362Z,56.88
2023-03-08T02:58:53.130Z,56.78
2023-03-08T03:03:57.711Z,56.85
2023-03-08T03:09:01.918Z,56.84
2023-03-08T03:14:04.936Z,56.98
2023-03-08T03:19:13.264Z,57.03
2023-03-08T03:24:17.543Z,57.18
2023-03-08T03:29:28.593Z,57.29
2023-03-08T03:34:44.354Z,57.54
2023-03-08T03:39:49.030Z,57.69
2023-03-08T03:44:53.595Z,57.91
2023-03-08T03:49:57.737Z,58.03
2023-03-08T03:55:03.528Z,58.21
2023-03-08T04:00:09.148Z,58.62
2023-03-08T04:05:16.441Z,58.65
2023-03-08T04:10:23.671Z,59.00
2023-03-08T04:15:28.828Z,59.09
2023-03-08T04:20:33.903Z,59.23
2023-03-08T04:25:40.347Z,59.48
2023-03-08T04:30:46.615Z,59.57
2023-03-08T04:35:53.694Z,59.33
2023-03-08T04:41:05.483Z,59.41
2023-03-08T04:46:19.109Z,59.20
2023-03-08T04:51:24.101Z,59.23
2023-03-08T04:56:28.802Z,59.10
2023-03-08T05:01:31.921Z,59.19
2023-03-08T05:06:35.098Z,59.31
2023-03-08T05:11:39.273Z,59.21
2023-03-08T05:16:42.118Z,59.30
2023-03-08T05:21:46.658Z,59.38
2023-03-08T05:26:51.795Z,59.60
2023-03-08T05:31:57.975Z,59.52
2023-03-08T05:37:01.813Z,59.38
2023-03-08T05:42:08.078Z,59.66
2023-03-08T05:47:15.275Z,59.78
2023-03-08T05:52:18.121Z,60.02
2023-03-08T05:57:22.611Z,59.86
2023-03-08T06:02:26.501Z,59.89
2023-03-08T06:07:31.068Z,59.99
2023-03-08T06:12:42.974Z,59.93
2023-03-08T06:17:49.595Z,59.97
2023-03-08T06:22:55.228Z,60.22
2023-03-08T06:27:59.549Z,60.39
2023-03-08T06:33:09.464Z,60.14
2023-03-08T06:38:12.277Z,60.41
2023-03-08T06:43:16.546Z,60.40
2023-03-08T06:48:19.773Z,60.49
2023-03-08T06:53:22.827Z,60.41
2023-03-08T06:58:33.824Z,60.49
2023-03-08T07:03:37.011Z,60.37
2023-03-08T07:08:40.232Z,60.52
2023-03-08T07:13:44.453Z,60.57
2023-03-08T07:18:47.193Z,60.45
2023-03-08T07:23:52.312Z,60.69
2023-03-08T07:28:57.784Z,60.69
2023-03-08T07:34:00.492Z,60.76
2023-03-08T07:39:03.248Z,60.72
2023-03-08T07:44:07.457Z,60.68
2023-03-08T07:49:11.685Z,60.71
2023-03-08T07:54:14.379Z,60.69
2023-03-08T07:59:18.508Z,52.70
2023-03-08T08:04:23.144Z,50.75
2023-03-08T08:09:26.124Z,52.52
2023-03-08T08:14:30.270Z,52.35
2023-03-08T08:19:33.018Z,50.06
2023-03-08T08:24:35.696Z,49.36
2023-03-08T08:29:39.814Z,49.64
2023-03-08T08:34:42.645Z,50.33
2023-03-08T08:39:45.392Z,52.00
2023-03-08T08:44:49.614Z,53.32
2023-03-08T08:49:52.902Z,54.00
2023-03-08T08:54:56.692Z,54.51
2023-03-08T09:00:00.758Z,54.63
2023-03-08T09:05:03.893Z,54.95
2023-03-08T09:10:08.092Z,55.07
2023-03-08T09:15:12.669Z,55.28
2023-03-08T09:20:16.274Z,55.47
2023-03-08T09:25:23.728Z,55.51
2023-03-08T09:30:29.123Z,55.55
2023-03-08T09:35:31.901Z,55.76
2023-03-08T09:40:41.084Z,55.99
2023-03-08T09:45:45.801Z,56.06
2023-03-08T09:50:50.881Z,56.21
2023-03-08T09:55:57.607Z,56.25
2023-03-08T10:01:13.764Z,56.46
2023-03-08T10:06:22.175Z,56.55
2023-03-08T10:11:32.390Z,56.69
2023-03-08T10:16:43.530Z,56.51
2023-03-08T10:21:47.909Z,56.75
2023-03-08T10:26:50.719Z,56.71
2023-03-08T10:31:54.790Z,56.76
2023-03-08T10:37:00.598Z,57.01
2023-03-08T10:42:13.857Z,57.15
2023-03-08T10:47:24.388Z,57.24
2023-03-08T10:52:29.097Z,57.18
2023-03-08T10:57:32.482Z,57.20
2023-03-08T11:02:36.602Z,57.26
2023-03-08T11:07:39.305Z,57.45
2023-03-08T11:12:42.952Z,57.36
2023-03-08T11:17:54.851Z,57.49
2023-03-08T11:23:08.005Z,57.61
2023-03-08T11:28:30.444Z,57.61
2023-03-08T11:33:58.027Z,57.56
2023-03-08T11:39:07.106Z,57.60
2023-03-08T11:44:32.113Z,57.78
2023-03-08T11:49:52.513Z,57.85
2023-03-08T11:55:07.872Z,57.82
2023-03-08T12:00:25.378Z,57.83
2023-03-08T12:05:31.214Z,57.83
2023-03-08T12:10:44.563Z,58.06
2023-03-08T12:15:53.444Z,57.71
2023-03-08T12:21:06.929Z,58.09
2023-03-08T12:26:15.495Z,58.06
2023-03-08T12:31:28.469Z,57.98
2023-03-08T12:36:41.931Z,58.25
2023-03-08T12:41:44.989Z,58.21
2023-03-08T12:47:02.215Z,58.17
2023-03-08T12:52:28.422Z,58.22
2023-03-08T12:57:34.201Z,58.29
2023-03-08T13:02:37.256Z,58.09
2023-03-08T13:07:53.355Z,57.97
2023-03-08T13:13:31.122Z,57.83
2023-03-08T13:18:38.071Z,58.02
2023-03-08T13:23:50.094Z,57.83
2023-03-08T13:28:54.158Z,57.80
2023-03-08T13:33:59.127Z,57.57
2023-03-08T13:39:06.397Z,57.77
2023-03-08T13:44:16.198Z,57.54
2023-03-08T13:49:23.892Z,57.61
2023-03-08T13:54:31.987Z,57.71
2023-03-08T13:59:37.877Z,57.60
2023-03-08T14:04:45.246Z,57.71
2023-03-08T14:09:49.798Z,57.79
2023-03-08T14:14:56.316Z,57.70
2023-03-08T14:20:02.307Z,58.31
2023-03-08T14:25:07.294Z,58.62
2023-03-08T14:30:15.160Z,58.84
2023-03-08T14:35:23.231Z,59.08
2023-03-08T14:40:31.135Z,59.22
2023-03-08T14:45:36.620Z,59.56
2023-03-08T14:50:39.624Z,59.43
2023-03-08T14:55:43.683Z,59.52
2023-03-08T15:00:50.790Z,59.73
2023-03-08T15:05:54.240Z,59.57
2023-03-08T15:10:58.522Z,59.34
2023-03-08T15:16:01.322Z,59.02
2023-03-08T15:21:04.419Z,59.03
2023-03-08T15:26:08.983Z,58.75
2023-03-08T15:31:12.059Z,58.69
2023-03-08T15:36:17.154Z,58.46
2023-03-08T15:41:21.409Z,58.17
2023-03-08T15:46:24.204Z,58.00
2023-03-08T15:51:32.276Z,58.00
2023-03-08T15:56:36.316Z,57.94
2023-03-08T16:01:39.269Z,58.02
2023-03-08T16:06:43.599Z,57.62
2023-03-08T16:11:48.242Z,57.72
2023-03-08T16:16:51.229Z,57.53
2023-03-08T16:21:53.960Z,57.75
2023-03-08T16:26:59.264Z,57.81
2023-03-08T16:32:02.047Z,57.54
2023-03-08T16:37:05.957Z,57.48
2023-03-08T16:42:13.390Z,57.47
2023-03-08T16:47:16.096Z,57.35
2023-03-08T16:52:19.368Z,57.62
2023-03-08T16:57:23.409Z,57.67
2023-03-08T17:02:26.179Z,58.21
2023-03-08T17:07:28.955Z,58.31
2023-03-08T17:17:35.550Z,58.58
2023-03-08T17:22:38.207Z,58.78
2023-03-08T17:27:42.278Z,58.59
2023-03-08T17:32:45.056Z,58.50
2023-03-08T17:37:49.967Z,58.58
2023-03-08T17:42:54.151Z,58.35
2023-03-08T17:48:01.197Z,58.19
2023-03-08T17:53:04.157Z,58.40
2023-03-08T17:58:08.236Z,58.31
2023-03-08T18:03:10.929Z,58.32
2023-03-08T18:08:13.816Z,58.22
2023-03-08T18:13:17.839Z,58.16
2023-03-08T18:18:20.790Z,58.22
2023-03-08T18:23:24.581Z,58.08
2023-03-08T18:28:28.660Z,58.00
2023-03-08T18:33:31.381Z,58.08
2023-03-08T18:38:34.291Z,58.08
2023-03-08T18:43:40.770Z,58.04
2023-03-08T18:48:46.290Z,57.90
2023-03-08T18:53:49.004Z,57.82
2023-03-08T18:58:53.085Z,57.78
2023-03-08T19:03:55.905Z,57.82
2023-03-08T19:08:58.662Z,57.76
2023-03-08T19:14:02.791Z,57.75
2023-03-08T19:19:07.827Z,57.88
2023-03-08T19:24:12.803Z,57.74
2023-03-08T19:29:18.604Z,57.59
2023-03-08T19:34:23.949Z,57.65
2023-03-08T19:39:28.958Z,57.55
2023-03-08T19:44:34.521Z,57.71
2023-03-08T19:49:38.642Z,57.73
2023-03-08T19:54:42.824Z,57.63
2023-03-08T19:59:46.967Z,57.46
2023-03-08T20:04:49.726Z,57.58
2023-03-08T20:09:54.479Z,57.58
2023-03-08T20:14:58.531Z,57.55
2023-03-08T20:20:01.417Z,57.40
2023-03-08T20:25:04.189Z,57.44
2023-03-08T20:30:10.200Z,57.20
2023-03-08T20:35:14.906Z,56.90
2023-03-08T20:40:20.670Z,56.79
2023-03-08T20:45:25.637Z,56.30
2023-03-08T20:50:28.633Z,56.30
2023-03-08T20:55:31.453Z,56.19
2023-03-08T21:00:35.914Z,56.05
2023-03-08T21:05:39.734Z,56.11
2023-03-08T21:10:42.869Z,55.78
2023-03-08T21:15:47.156Z,55.46
2023-03-08T21:20:49.843Z,55.65
2023-03-08T21:25:53.122Z,55.53
2023-03-08T21:30:57.210Z,55.37
2023-03-08T21:36:00.140Z,55.63
2023-03-08T21:41:03.468Z,56.51
2023-03-08T21:46:07.657Z,56.67
2023-03-08T21:51:10.761Z,56.48
2023-03-08T21:56:15.902Z,56.85
2023-03-08T22:01:21.936Z,57.37
2023-03-08T22:06:25.468Z,57.12
2023-03-08T22:11:28.470Z,56.79
2023-03-08T22:16:33.239Z,56.91
2023-03-08T22:21:35.996Z,56.97
2023-03-08T22:26:38.660Z,56.87
2023-03-08T22:31:42.719Z,56.84
2023-03-08T22:36:45.418Z,56.97
2023-03-08T22:46:52.098Z,57.36
2023-03-08T22:51:54.782Z,57.46
2023-03-08T22:56:57.840Z,57.47
2023-03-08T23:02:01.986Z,57.63
2023-03-08T23:07:04.853Z,58.01
2023-03-08T23:12:08.326Z,58.29
2023-03-08T23:17:12.335Z,58.51
2023-03-08T23:22:15.032Z,58.71
2023-03-08T23:27:17.784Z,58.74
2023-03-08T23:32:21.950Z,59.07
2023-03-08T23:37:24.660Z,59.16
2023-03-08T23:42:27.512Z,59.35
2023-03-08T23:47:31.832Z,59.56
2023-03-08T23:52:34.556Z,59.53
2023-03-08T23:57:37.237Z,59.74
